ENBRENAL

Guest
Details From ENBR - Bergen Lufthavn Flesland
To ENAL - Alesund lufthavn - Vigra
Flight Number -
Tags generated
Created
Modified
Stats Distance 139 nm / 257 km
Max Altitude 7,400 ft / 2,256 m
Waypoints 3
Social Downloads 0
Likes 0
Share VATSIM

Download

Looking for another format? Having issues loading an existing format? Contact us
Advertisement - Login to hide

Notes

Basic altitude profile: - Ascent Rate: 1200ft/min - Ascent Speed: 140kts - Cruise Altitude: 15000ft - Cruise Speed: 200kts - Descent Rate: 1200ft/min - Descent Speed: 180kts Options: - Use NATs: yes - Use PACOTS: yes - Use low airways: yes - Use high airways: yes

Route

ENBR AMKAR ENAL

ID Type Via Altitude Latitude Longitude Leg Dist Tot Dist Heading (true) Name
O ENBR APT - 0 ft / 0 m 60.29339˚ 5.21814˚ - 0 nm - Bergen Lufthavn Flesland
AMKAR FIX - 7,400 ft / 2,256 m 62.00000˚ 5.82556˚ 103 nm 103 nm 9° / 10° -
O ENAL APT - 0 ft / 0 m 62.56037˚ 6.11016˚ 34 nm 138 nm 13° / 13° Alesund lufthavn - Vigra

Altitude Profile

Advertisement - Login to hide

ENBR

Details ICAO ENBR (BGO)
Name Bergen Lufthavn Flesland
Region Norway
Timezone Europe/Oslo (UTC+1.0)
Stats Elevation 165 ft / 50 m (AMSL)
Location 60.293388° 5.218140°
Runways 1
Magnetic Variation 0.842° E

METAR

ENBR 170750Z 15005KT 9999 FEW015 BKN053 M02/M05 Q1013 TEMPO 2000 -SHSN BKN010TCU RMK WIND 1200FT 14017KT

Decode

TAF

TAF ENBR 170500Z 1706/1806 VRB05KT 9999 SCT020 BKN040 PROB30 TEMPO 1706/1710 2000 SHSN VV010 BECMG 1708/1710 14010KT BECMG 1711/1713 16020G30KT BECMG 1714/1716 BKN012 TEMPO 1716/1724 3000 RASN BR BKN008 BECMG 1721/1723 VRB05KT BECMG 1800/1802 SCT030

Decode

Departure Runways

ID Width Length Bearing (true) Bearing (mag) Surface Threshold Offset Overrun Length
17 148 ft / 45 m 9,793 ft / 2,985 m 170.56° 169.72° Asphalt 886 ft / 270 m 0 ft / 0 m
35 148 ft / 45 m 9,793 ft / 2,985 m 350.57° 349.73° Asphalt 886 ft / 270 m 0 ft / 0 m

ENAL

Details ICAO ENAL (AES)
Name Alesund lufthavn - Vigra
Region Norway
Timezone Europe/Oslo (UTC+1.0)
Stats Elevation 69 ft / 21 m (AMSL)
Location 62.560371° 6.110165°
Runways 1
Magnetic Variation 1.163° E

METAR

ENAL 170750Z 18011KT 9999 BKN049 03/M01 Q1009

Decode

TAF

Not found

Destination Runways

ID Width Length Bearing (true) Bearing (mag) Surface Threshold Offset Overrun Length
07 148 ft / 45 m 7,563 ft / 2,305 m 64.61° 63.45° Asphalt 492 ft / 150 m 0 ft / 0 m
25 148 ft / 45 m 7,563 ft / 2,305 m 244.65° 243.49° Asphalt 758 ft / 231 m 0 ft / 0 m

Approach Navaids

Runway Type Ident Frequency Range Bearing (true) Bearing (mag) Slope Elevation
25 Localiser VGR 111.95 MHz 18 nm / 33 km 244.61° 243.45° - 72 ft / 22 m (AMSL)
25 Glidescope VGR 111.95 MHz 10 nm / 19 km 244.61° 243.45° 3.00° 18 ft / 5 m (AMSL)

Popular Alternatives